createdAt,value
2023-02-21T00:00:58.091Z,99177.53
2023-02-21T00:03:15.030Z,99159.01
2023-02-21T00:05:26.323Z,99159.01
2023-02-21T00:08:14.987Z,99152.89
2023-02-21T00:08:25.585Z,99152.89
2023-02-21T00:08:35.966Z,99152.89
2023-02-21T00:13:15.169Z,99145.11
2023-02-21T00:18:15.022Z,99200.19
2023-02-21T00:20:50.855Z,99200.19
2023-02-21T00:22:27.180Z,99192.69
2023-02-21T00:23:14.982Z,99192.69
2023-02-21T00:25:33.658Z,99192.69
2023-02-21T00:28:15.066Z,99190.62
2023-02-21T00:31:00.392Z,99190.62
2023-02-21T00:33:15.077Z,99182.15
2023-02-21T00:35:50.383Z,99182.15
2023-02-21T00:38:14.964Z,99195.39
2023-02-21T00:40:49.566Z,99195.39
2023-02-21T00:43:15.097Z,99181.02
2023-02-21T00:44:41.674Z,99181.02
2023-02-21T00:48:15.045Z,99173.54000000001
2023-02-21T00:50:06.304Z,99173.54000000001
2023-02-21T00:53:15.020Z,99174.0
2023-02-21T00:55:05.263Z,99174.0
2023-02-21T00:57:05.385Z,99167.36
2023-02-21T00:58:14.979Z,99167.36
2023-02-21T01:03:15.499Z,99169.3
2023-02-21T01:03:26.000Z,99169.3
2023-02-21T01:03:36.301Z,99169.3
2023-02-21T01:05:36.423Z,99169.3
2023-02-21T01:07:08.595Z,99166.44
2023-02-21T01:08:14.968Z,99166.44
2023-02-21T01:08:50.610Z,99166.44
2023-02-21T01:11:52.097Z,99166.85
2023-02-21T01:13:14.436Z,99166.85
2023-02-21T01:13:25.004Z,99166.85
2023-02-21T01:18:15.468Z,99185.82
2023-02-21T01:18:50.661Z,99185.82
2023-02-21T01:23:14.942Z,99162.17
2023-02-21T01:25:27.613Z,99162.17
2023-02-21T01:28:15.102Z,99161.65999999999
2023-02-21T01:33:15.666Z,99151.76
2023-02-21T01:35:10.692Z,99151.76
2023-02-21T01:38:14.942Z,99152.33
2023-02-21T01:43:23.608Z,99159.12
2023-02-21T01:48:16.095Z,99157.34
2023-02-21T01:49:48.463Z,99157.34
2023-02-21T01:53:19.036Z,99159.93999999999
2023-02-21T01:55:30.041Z,99159.93999999999
2023-02-21T01:56:15.574Z,99159.93999999999
2023-02-21T01:58:15.084Z,99158.72
2023-02-21T01:59:42.440Z,99158.72
2023-02-21T02:03:16.526Z,99160.16
2023-02-21T02:08:15.234Z,99161.41
2023-02-21T02:09:24.506Z,99161.41
2023-02-21T02:10:48.174Z,99161.41
2023-02-21T02:13:17.111Z,99148.25
2023-02-21T02:14:31.946Z,99148.25
2023-02-21T02:18:16.846Z,99162.27
2023-02-21T02:19:11.373Z,99162.27
2023-02-21T02:20:30.027Z,99162.27
2023-02-21T02:22:38.166Z,99170.33
2023-02-21T02:23:19.303Z,99170.33
2023-02-21T02:28:24.362Z,99174.15999999999
2023-02-21T02:30:29.808Z,99174.15999999999
2023-02-21T02:32:11.916Z,99175.64
2023-02-21T02:33:24.857Z,99175.64
2023-02-21T02:34:48.733Z,99175.64
2023-02-21T02:38:13.023Z,99182.70999999999
2023-02-21T02:43:15.109Z,99179.24
2023-02-21T02:43:43.072Z,99179.24
2023-02-21T02:48:11.876Z,99175.06
2023-02-21T02:48:54.771Z,99175.06
2023-02-21T02:51:46.314Z,99175.06
2023-02-21T02:53:05.040Z,99160.19
2023-02-21T02:58:06.469Z,99166.45999999999
2023-02-21T02:58:53.311Z,99166.45999999999
2023-02-21T03:01:18.387Z,99166.45999999999
2023-02-21T03:03:20.142Z,99171.48999999999
2023-02-21T03:08:16.327Z,99170.06
2023-02-21T03:10:53.973Z,99170.06
2023-02-21T03:12:57.939Z,99155.79000000001
2023-02-21T03:13:11.965Z,99155.79000000001
2023-02-21T03:18:13.026Z,99151.17
2023-02-21T03:19:11.630Z,99151.17
2023-02-21T03:23:07.081Z,99159.45
2023-02-21T03:23:53.736Z,99159.45
2023-02-21T03:26:10.964Z,99159.45
2023-02-21T03:28:05.503Z,99168.25
2023-02-21T03:29:43.802Z,99168.25
2023-02-21T03:32:11.127Z,99174.01
2023-02-21T03:33:05.135Z,99174.01
2023-02-21T03:37:20.466Z,99159.99
2023-02-21T03:38:05.075Z,99159.99
2023-02-21T03:39:02.682Z,99159.99
2023-02-21T03:41:30.416Z,99159.99
2023-02-21T03:43:06.209Z,99162.13
2023-02-21T03:48:05.814Z,99157.65
2023-02-21T03:50:38.416Z,99157.65
2023-02-21T03:53:05.042Z,99170.59000000001
2023-02-21T03:54:50.294Z,99170.59000000001
2023-02-21T03:58:04.933Z,99171.25
2023-02-21T04:00:22.359Z,99171.25
2023-02-21T04:03:05.021Z,99164.62
2023-02-21T04:03:41.958Z,99164.62
2023-02-21T04:06:23.638Z,99164.62
2023-02-21T04:08:05.233Z,99166.45999999999
2023-02-21T04:11:27.658Z,99166.45999999999
2023-02-21T04:13:06.750Z,99172.85
2023-02-21T04:15:47.667Z,99172.85
2023-02-21T04:18:05.076Z,99171.91
2023-02-21T04:19:27.068Z,99171.91
2023-02-21T04:21:22.024Z,99171.91
2023-02-21T04:23:05.180Z,99151.37
2023-02-21T04:28:05.070Z,99155.89
2023-02-21T04:31:40.498Z,99155.89
2023-02-21T04:33:04.898Z,99152.91
2023-02-21T04:34:20.944Z,99152.91
2023-02-21T04:36:46.426Z,99152.91
2023-02-21T04:38:05.016Z,99168.69
2023-02-21T04:39:13.673Z,99168.69
2023-02-21T04:41:07.529Z,99168.69
2023-02-21T04:43:05.040Z,99157.39
2023-02-21T04:45:00.855Z,99157.39
2023-02-21T04:46:21.465Z,99157.39
2023-02-21T04:48:05.272Z,99163.44
2023-02-21T04:51:15.368Z,99163.44
2023-02-21T04:53:05.072Z,99177.18
2023-02-21T04:56:22.221Z,99177.18
2023-02-21T04:58:04.997Z,99184.66
2023-02-21T05:03:05.530Z,99184.73
2023-02-21T05:03:29.124Z,99184.73
2023-02-21T05:06:40.245Z,99184.73
2023-02-21T05:08:04.877Z,99174.15999999999
2023-02-21T05:09:07.095Z,99174.15999999999
2023-02-21T05:13:04.956Z,99183.98999999999
2023-02-21T05:13:41.904Z,99183.98999999999
2023-02-21T05:16:43.646Z,99183.98999999999
2023-02-21T05:18:05.005Z,99190.51
2023-02-21T05:18:11.881Z,99190.51
2023-02-21T05:23:13.494Z,99195.76
2023-02-21T05:23:31.303Z,99195.76
2023-02-21T05:28:05.168Z,99186.05
2023-02-21T05:29:21.407Z,99186.05
2023-02-21T05:31:06.890Z,99186.05
2023-02-21T05:33:04.873Z,99189.18
2023-02-21T05:36:50.931Z,99189.87
2023-02-21T05:38:04.864Z,99189.87
2023-02-21T05:43:05.330Z,99193.84
2023-02-21T05:48:05.307Z,99207.14
2023-02-21T05:48:15.054Z,99207.14
2023-02-21T05:51:47.626Z,99207.14
2023-02-21T05:53:05.566Z,99199.08
2023-02-21T05:57:44.362Z,99199.14
2023-02-21T05:58:05.057Z,99199.14
2023-02-21T06:01:59.525Z,99207.59000000001
2023-02-21T06:03:05.137Z,99207.59000000001
2023-02-21T06:06:46.492Z,99207.59000000001
2023-02-21T06:08:05.275Z,99205.95
2023-02-21T06:08:13.699Z,99205.95
2023-02-21T06:13:04.885Z,99210.05
2023-02-21T06:14:26.714Z,99210.05
2023-02-21T06:18:05.031Z,99210.63
2023-02-21T06:19:43.268Z,99210.63
2023-02-21T06:23:04.885Z,99222.28
2023-02-21T06:28:05.137Z,99222.75
2023-02-21T06:30:46.155Z,99222.75
2023-02-21T06:32:30.357Z,99218.95
2023-02-21T06:33:05.063Z,99218.95
2023-02-21T06:38:04.856Z,99220.09000000001
2023-02-21T06:42:25.315Z,99233.06
2023-02-21T06:43:05.114Z,99233.06
2023-02-21T06:48:06.489Z,99246.95
2023-02-21T06:53:05.042Z,99240.84
2023-02-21T06:58:05.102Z,99255.40999999999
2023-02-21T07:03:05.048Z,99245.26
2023-02-21T07:08:05.207Z,99257.70999999999
2023-02-21T07:13:04.821Z,99285.51999999999
2023-02-21T07:18:05.268Z,99304.45999999999
2023-02-21T07:23:04.931Z,99305.05
2023-02-21T07:28:04.868Z,99314.45
2023-02-21T07:33:05.294Z,99344.69
2023-02-21T07:38:06.554Z,99349.28
2023-02-21T07:43:04.856Z,99364.18
2023-02-21T07:48:05.171Z,99370.5
2023-02-21T07:48:48.159Z,99370.5
2023-02-21T07:51:06.590Z,99370.5
2023-02-21T07:52:37.366Z,99380.74
2023-02-21T07:53:04.766Z,99380.74
2023-02-21T07:58:05.779Z,99377.59
2023-02-21T08:03:05.085Z,99387.59999999999
2023-02-21T08:08:07.110Z,99395.47
2023-02-21T08:13:04.965Z,99397.41
2023-02-21T08:18:05.587Z,99421.66
2023-02-21T08:23:04.719Z,99413.78
2023-02-21T08:28:05.519Z,99421.03
2023-02-21T08:33:05.057Z,99423.01
2023-02-21T08:38:05.066Z,99427.09
2023-02-21T08:43:04.974Z,99433.08
2023-02-21T08:48:05.221Z,99444.44
2023-02-21T08:53:04.750Z,99450.61
2023-02-21T08:58:05.344Z,99472.64
2023-02-21T09:03:04.938Z,99459.81
2023-02-21T09:08:04.991Z,99464.81
2023-02-21T09:13:04.858Z,99469.54
2023-02-21T09:18:05.726Z,99484.74
2023-02-21T09:23:04.828Z,99491.2
2023-02-21T09:28:04.871Z,99504.52
2023-02-21T09:33:04.980Z,99507.09000000001
2023-02-21T09:38:07.080Z,99516.95999999999
2023-02-21T09:43:10.089Z,99519.94
2023-02-21T09:48:10.544Z,99538.73
2023-02-21T09:53:07.008Z,99546.78
2023-02-21T09:58:08.569Z,99552.52
2023-02-21T10:03:20.432Z,99536.95
2023-02-21T10:08:11.310Z,99548.61
2023-02-21T10:13:13.598Z,99553.14
2023-02-21T10:18:18.394Z,99551.03
2023-02-21T10:23:13.936Z,99569.12
2023-02-21T10:28:04.690Z,99566.78
2023-02-21T10:33:07.687Z,99571.63
2023-02-21T10:38:08.775Z,99564.26
2023-02-21T10:43:09.787Z,99584.34
2023-02-21T10:48:06.838Z,99599.42
2023-02-21T10:53:05.842Z,99608.04000000001
2023-02-21T10:58:07.926Z,99604.45999999999
2023-02-21T11:03:07.393Z,99609.81
2023-02-21T11:08:07.523Z,99632.14
2023-02-21T11:13:13.933Z,99629.13
2023-02-21T11:18:12.077Z,99632.54
2023-02-21T11:23:14.663Z,99639.54
2023-02-21T11:28:16.676Z,99644.69
2023-02-21T11:33:06.961Z,99647.05
2023-02-21T11:38:08.949Z,99656.55
2023-02-21T11:43:19.746Z,99641.99
2023-02-21T11:48:10.758Z,99651.54
2023-02-21T11:53:14.386Z,99635.04000000001
2023-02-21T11:58:16.826Z,99668.08
2023-02-21T12:03:18.705Z,99675.51
2023-02-21T12:08:24.421Z,99670.54000000001
2023-02-21T12:13:08.281Z,99674.27
2023-02-21T12:13:19.767Z,99674.27
2023-02-21T12:18:22.866Z,99679.5
2023-02-21T12:23:13.914Z,99682.42
2023-02-21T12:28:16.381Z,99682.59000000001
2023-02-21T12:33:16.905Z,99688.7
2023-02-21T12:38:09.828Z,99686.92
2023-02-21T12:43:22.038Z,99692.58
2023-02-21T12:48:10.807Z,99691.57
2023-02-21T12:53:12.560Z,99684.06
2023-02-21T12:58:13.117Z,99703.54999999999
2023-02-21T13:03:22.343Z,99700.72
2023-02-21T13:08:13.379Z,99705.7
2023-02-21T13:13:10.852Z,99706.86
2023-02-21T13:16:39.132Z,99706.86
2023-02-21T13:18:08.183Z,99712.95
2023-02-21T13:23:34.361Z,99715.89
2023-02-21T13:28:13.609Z,99717.81
2023-02-21T13:33:05.544Z,99719.3
2023-02-21T13:38:06.776Z,99740.23999999999
2023-02-21T13:43:11.473Z,99737.58
2023-02-21T13:48:18.722Z,99757.2
2023-02-21T13:53:15.386Z,99759.03
2023-02-21T13:58:23.316Z,99765.66
2023-02-21T14:03:24.304Z,99774.41
2023-02-21T14:08:06.578Z,99774.45
2023-02-21T14:13:17.050Z,99774.97
2023-02-21T14:18:06.059Z,99787.90000000001
2023-02-21T14:23:04.692Z,99787.89
2023-02-21T14:28:24.449Z,99791.90999999999
2023-02-21T14:33:20.061Z,99794.36
2023-02-21T14:38:08.734Z,99801.83
2023-02-21T14:43:23.765Z,99807.15
2023-02-21T14:48:24.340Z,99810.83
2023-02-21T14:53:24.430Z,99803.41
2023-02-21T14:58:24.265Z,99809.97
2023-02-21T15:03:10.521Z,99817.92
2023-02-21T15:08:09.175Z,99828.12
2023-02-21T15:13:05.236Z,99844.25
2023-02-21T15:18:06.650Z,99850.08
2023-02-21T15:23:13.345Z,99858.32
2023-02-21T15:28:14.601Z,99860.83
2023-02-21T15:33:10.632Z,99863.51
2023-02-21T15:38:09.535Z,99870.7
2023-02-21T15:43:06.044Z,99875.01999999999
2023-02-21T15:48:04.940Z,99881.06
2023-02-21T15:53:15.323Z,99892.04999999999
2023-02-21T15:58:14.350Z,99900.89
2023-02-21T16:03:24.275Z,99901.84000000001
2023-02-21T16:08:04.444Z,99904.71
2023-02-21T16:13:04.754Z,99907.81
2023-02-21T16:18:07.409Z,99908.91
2023-02-21T16:23:20.575Z,99919.98
2023-02-21T16:28:11.687Z,99932.51000000001
2023-02-21T16:33:05.390Z,99929.83
2023-02-21T16:38:06.064Z,99942.79000000001
2023-02-21T16:43:04.848Z,99946.41
2023-02-21T16:48:06.122Z,99955.89
2023-02-21T16:53:05.322Z,99957.89
2023-02-21T16:58:10.956Z,99960.28
2023-02-21T17:03:04.452Z,99970.64
2023-02-21T17:08:04.664Z,99975.3
2023-02-21T17:13:04.897Z,99981.42
2023-02-21T17:18:04.790Z,99991.17
2023-02-21T17:23:04.990Z,99987.78
2023-02-21T17:28:04.762Z,99993.82
2023-02-21T17:33:07.147Z,100003.99
2023-02-21T17:38:04.812Z,100002.89
2023-02-21T17:43:15.279Z,100010.05
2023-02-21T17:48:05.172Z,100008.22
2023-02-21T17:53:04.485Z,100009.38
2023-02-21T17:58:05.309Z,100009.34
2023-02-21T18:03:05.979Z,100010.08
2023-02-21T18:08:04.810Z,100013.4
2023-02-21T18:13:05.009Z,100032.03
2023-02-21T18:18:07.129Z,100037.23999999999
2023-02-21T18:23:05.542Z,100032.89
2023-02-21T18:28:04.917Z,100036.13
2023-02-21T18:33:05.633Z,100043.42
2023-02-21T18:38:04.520Z,100049.98000000001
2023-02-21T18:43:05.265Z,100058.4
2023-02-21T18:48:04.495Z,100059.86
2023-02-21T18:53:04.857Z,100063.01999999999
2023-02-21T18:58:05.525Z,100071.11
2023-02-21T19:03:06.924Z,100076.76
2023-02-21T19:08:04.432Z,100088.23
2023-02-21T19:13:04.694Z,100095.42
2023-02-21T19:18:04.509Z,100101.65
2023-02-21T19:23:05.317Z,100099.31
2023-02-21T19:28:06.021Z,100112.83
2023-02-21T19:33:06.688Z,100113.17
2023-02-21T19:38:06.024Z,100121.19
2023-02-21T19:43:05.452Z,100123.51999999999
2023-02-21T19:48:04.591Z,100127.49
2023-02-21T19:53:04.572Z,100132.93
2023-02-21T19:58:07.605Z,100138.45
2023-02-21T20:03:04.942Z,100142.03
2023-02-21T20:08:04.838Z,100156.75
2023-02-21T20:13:06.543Z,100154.92
2023-02-21T20:18:04.440Z,100153.45
2023-02-21T20:23:04.340Z,100157.86
2023-02-21T20:28:06.337Z,100157.65
2023-02-21T20:33:05.834Z,100167.40999999999
2023-02-21T20:38:04.970Z,100180.05
2023-02-21T20:43:04.470Z,100192.11
2023-02-21T20:48:06.188Z,100208.37
2023-02-21T20:53:04.567Z,100221.8
2023-02-21T20:58:04.926Z,100228.28
2023-02-21T21:03:05.142Z,100232.34
2023-02-21T21:08:04.487Z,100232.05
2023-02-21T21:13:04.505Z,100246.25
2023-02-21T21:18:04.199Z,100243.09
2023-02-21T21:23:06.408Z,100237.62000000001
2023-02-21T21:28:06.165Z,100244.26
2023-02-21T21:33:06.423Z,100254.38
2023-02-21T21:38:06.319Z,100253.05
2023-02-21T21:42:37.035Z,100266.03
2023-02-21T21:43:06.616Z,100266.03
2023-02-21T21:48:04.762Z,100269.73000000001
2023-02-21T21:53:05.779Z,100271.95
2023-02-21T21:58:09.683Z,100267.89
2023-02-21T22:03:06.782Z,100281.92
2023-02-21T22:08:04.528Z,100291.24
2023-02-21T22:13:12.677Z,100300.12000000001
2023-02-21T22:18:04.261Z,100307.47
2023-02-21T22:23:05.988Z,100316.09
2023-02-21T22:28:08.730Z,100321.88
2023-02-21T22:33:05.260Z,100331.04
2023-02-21T22:38:06.631Z,100330.83
2023-02-21T22:43:04.970Z,100331.11
2023-02-21T22:48:06.237Z,100334.28
2023-02-21T22:53:07.172Z,100338.34000000001
2023-02-21T22:58:06.259Z,100338.17
2023-02-21T23:03:11.849Z,100358.04000000001
2023-02-21T23:08:05.439Z,100364.12
2023-02-21T23:13:04.098Z,100364.94
2023-02-21T23:18:04.360Z,100366.3
2023-02-21T23:23:04.243Z,100380.31
2023-02-21T23:28:06.860Z,100385.64
2023-02-21T23:33:05.322Z,100392.76999999999
2023-02-21T23:38:05.409Z,100403.88
2023-02-21T23:43:04.865Z,100411.05
2023-02-21T23:48:07.027Z,100410.92
2023-02-21T23:53:04.986Z,100416.38
2023-02-21T23:58:07.978Z,100419.36
